Observation data for Reese Center on 02/14/2017      Previous  Date  Next       Current Mesonet Observations  Soil Data  Daily Summary Page  Observations in Plain Language
KREE 140600Z 00006KT 03/02 A3005 RMK A01 T00290022  RH  096%=      5-min Rain = 0
KREE 140605Z 36007KT 03/02 A3004 RMK A01 T00300023  RH  097%=      5-min Rain = 0
KREE 140610Z 36006KT 03/02 A3004 RMK A01 T00300023  RH  096%=      5-min Rain = 0
KREE 140615Z 36006KT 03/02 A3004 RMK A01 T00300023  RH  096%=      5-min Rain = 0
KREE 140620Z 36007KT 03/02 A3003 RMK A01 T00300023  RH  097%=      5-min Rain = 0
KREE 140625Z 35006KT 03/02 A3003 RMK A01 T00300024  RH  097%=      5-min Rain = 0
KREE 140630Z 35008KT 03/02 A3003 RMK A01 T00300024  RH  097%=      5-min Rain = 0
KREE 140635Z 00006KT 03/02 A3003 RMK A01 T00310024  RH  097%=      5-min Rain = 0
KREE 140640Z 01006KT 03/03 A3004 RMK A01 T00310025  RH  097%=      5-min Rain = 0
KREE 140645Z 00006KT 03/03 A3004 RMK A01 T00310025  RH  097%=      5-min Rain = 0
KREE 140650Z 36006KT 03/03 A3004 RMK A01 T00310025  RH  097%=      5-min Rain = 0
KREE 140655Z 00007KT 03/03 A3004 RMK A01 T00320025  RH  097%=      5-min Rain = 0
KREE 140700Z 36007KT 03/03 A3003 RMK A01 T00320025  RH  097%=      5-min Rain = 0
KREE 140705Z 36007KT 03/03 A3003 RMK A01 T00320025  RH  096%=      5-min Rain = 0
KREE 140710Z 36007KT 03/03 A3003 RMK A01 T00320025  RH  096%=      5-min Rain = 0
KREE 140715Z 36008KT 03/02 A3004 RMK A01 T00320024  RH  096%=      5-min Rain = 0
KREE 140720Z 35009KT 03/02 A3003 RMK A01 T00320023  RH  095%=      5-min Rain = 0
KREE 140725Z 36009KT 03/02 A3003 RMK A01 T00320022  RH  095%=      5-min Rain = 0
KREE 140730Z 35010KT 03/02 A3003 RMK A01 T00310022  RH  095%=      5-min Rain = 0
KREE 140735Z 34009KT 03/02 A3003 RMK A01 T00310021  RH  095%=      5-min Rain = 0
KREE 140740Z 34010KT 03/02 A3003 RMK A01 T00290019  RH  094%=      5-min Rain = 0
KREE 140745Z 35012KT 03/02 A3002 RMK A01 T00290018  RH  094%=      5-min Rain = 0
KREE 140750Z 35012KT 03/02 A3002 RMK A01 T00280018  RH  094%=      5-min Rain = 0
KREE 140755Z 35011KT 03/02 A3002 RMK A01 T00280017  RH  094%=      5-min Rain = 0
KREE 140800Z 35012KT 03/02 A3002 RMK A01 T00280017  RH  093%=      5-min Rain = 0
KREE 140805Z 34012KT 03/02 A3003 RMK A01 T00280016  RH  092%=      5-min Rain = 0
KREE 140810Z 34010KT 03/02 A3003 RMK A01 T00280016  RH  093%=      5-min Rain = 0
KREE 140815Z 35011KT 03/02 A3003 RMK A01 T00280016  RH  093%=      5-min Rain = 0
KREE 140820Z 35010KT 03/02 A3003 RMK A01 T00280016  RH  093%=      5-min Rain = 0
KREE 140825Z 35011KT 03/02 A3002 RMK A01 T00280016  RH  093%=      5-min Rain = 0
KREE 140830Z 35011KT 03/02 A3002 RMK A01 T00280017  RH  093%=      5-min Rain = 0
KREE 140835Z 35010KT 03/02 A3002 RMK A01 T00280017  RH  094%=      5-min Rain = 0
KREE 140840Z 35011KT 03/02 A3002 RMK A01 T00280017  RH  093%=      5-min Rain = 0
KREE 140845Z 35010KT 03/02 A3002 RMK A01 T00280016  RH  093%=      5-min Rain = 0
KREE 140850Z 35010KT 03/02 A3002 RMK A01 T00290016  RH  093%=      5-min Rain = 0
KREE 140855Z 35011KT 03/02 A3002 RMK A01 T00290015  RH  092%=      5-min Rain = 0
KREE 140900Z 35011KT 03/02 A3002 RMK A01 T00290015  RH  092%=      5-min Rain = 0
KREE 140905Z 35011KT 03/01 A3002 RMK A01 T00290014  RH  091%=      5-min Rain = 0
KREE 140910Z 35012KT 03/01 A3002 RMK A01 T00290013  RH  090%=      5-min Rain = 0
KREE 140915Z 36014KT 03/01 A3003 RMK A01 T00290009  RH  088%=      5-min Rain = 0
KREE 140920Z 36013KT 03/01 A3003 RMK A01 T00290008  RH  087%=      5-min Rain = 0
KREE 140925Z 36012G17KT 03/01 A3003 RMK A01 T00290009  RH  088%=      5-min Rain = 0
KREE 140930Z 00011G18KT 03/01 A3003 RMK A01 T00290009  RH  088%=      5-min Rain = 0
KREE 140935Z 00013KT 03/00 A3003 RMK A01 T00290003  RH  084%=      5-min Rain = 0
KREE 140940Z 01011KT 03/01 A3003 RMK A01 T00280005  RH  086%=      5-min Rain = 0
KREE 140945Z 36012KT 03/01 A3003 RMK A01 T00290005  RH  085%=      5-min Rain = 0
KREE 140950Z 36011KT 03/01 A3003 RMK A01 T00290006  RH  086%=      5-min Rain = 0
KREE 140955Z 00012G17KT 03/01 A3003 RMK A01 T00290007  RH  086%=      5-min Rain = 0
KREE 141000Z 00013G18KT 03/01 A3003 RMK A01 T00290005  RH  085%=      5-min Rain = 0
KREE 141005Z 01013G18KT 03/00 A3002 RMK A01 T00280003  RH  084%=      5-min Rain = 0
KREE 141010Z 01011KT 03/00 A3002 RMK A01 T00270003  RH  085%=      5-min Rain = 0
KREE 141015Z 00011G18KT 03/00 A3002 RMK A01 T00270002  RH  085%=      5-min Rain = 0
KREE 141020Z 00012G19KT 03/00 A3002 RMK A01 T00280001  RH  083%=      5-min Rain = 0
KREE 141025Z 01012G19KT 03/00 A3002 RMK A01 T00280000  RH  083%=      5-min Rain = 0
KREE 141030Z 01012KT 03/00 A3002 RMK A01 T002800-0  RH  083%=      5-min Rain = 0
KREE 141035Z 00012KT 03/M00 A3002 RMK A01 T00281002  RH  082%=      5-min Rain = 0
KREE 141040Z 00013G19KT 03/M00 A3002 RMK A01 T00281001  RH  082%=      5-min Rain = 0
KREE 141045Z 01015KT 03/M00 A3002 RMK A01 T00271004  RH  081%=      5-min Rain = 0
KREE 141050Z 01012G17KT 03/M00 A3003 RMK A01 T00261002  RH  082%=      5-min Rain = 0
KREE 141055Z 02014KT 03/M00 A3003 RMK A01 T00261003  RH  082%=      5-min Rain = 0
KREE 141100Z 02013KT 03/M00 A3002 RMK A01 T00261004  RH  082%=      5-min Rain = 0
KREE 141105Z 02012KT 03/M00 A3002 RMK A01 T00261004  RH  082%=      5-min Rain = 0
KREE 141110Z 02010KT 03/M00 A3002 RMK A01 T00251001  RH  084%=      5-min Rain = 0
KREE 141115Z 02010KT 03/M00 A3002 RMK A01 T00261001  RH  084%=      5-min Rain = 0
KREE 141120Z 01009KT 03/00 A3002 RMK A01 T00260001  RH  084%=      5-min Rain = 0
KREE 141125Z 01009KT 03/00 A3002 RMK A01 T00260002  RH  085%=      5-min Rain = 0
KREE 141130Z 00007KT 03/00 A3002 RMK A01 T00260003  RH  086%=      5-min Rain = 0
KREE 141135Z 35006KT 03/01 A3002 RMK A01 T00260005  RH  087%=      5-min Rain = 0
KREE 141140Z 35006KT 03/01 A3002 RMK A01 T00270006  RH  087%=      5-min Rain = 0
KREE 141145Z 35006KT 03/01 A3002 RMK A01 T00270008  RH  088%=      5-min Rain = 0
KREE 141150Z 36008KT 03/01 A3002 RMK A01 T00280008  RH  088%=      5-min Rain = 0
KREE 141155Z 35008KT 03/01 A3002 RMK A01 T00280007  RH  087%=      5-min Rain = 0
KREE 141200Z 36008KT 03/01 A3002 RMK A01 T00290007  RH  087%=      5-min Rain = 0
KREE 141205Z 01007KT 03/01 A3002 RMK A01 T00290006  RH  086%=      5-min Rain = 0
KREE 141210Z 01007KT 03/01 A3002 RMK A01 T00290006  RH  086%=      5-min Rain = 0
KREE 141215Z 01008KT 03/01 A3002 RMK A01 T00280006  RH  086%=      5-min Rain = 0
KREE 141220Z 01007KT 03/01 A3002 RMK A01 T00280006  RH  086%=      5-min Rain = 0
KREE 141225Z 01007KT 03/01 A3002 RMK A01 T00280006  RH  087%=      5-min Rain = 0
KREE 141230Z 36007KT 03/01 A3002 RMK A01 T00280007  RH  087%=      5-min Rain = 0
KREE 141235Z 35007KT 03/01 A3002 RMK A01 T00290007  RH  087%=      5-min Rain = 0
KREE 141240Z 35008KT 03/01 A3002 RMK A01 T00290007  RH  087%=      5-min Rain = 0
KREE 141245Z 35009KT 03/01 A3002 RMK A01 T00300007  RH  086%=      5-min Rain = 0
KREE 141250Z 35009KT 03/01 A3003 RMK A01 T00300008  RH  087%=      5-min Rain = 0
KREE 141255Z 36010KT 03/01 A3002 RMK A01 T00300009  RH  087%=      5-min Rain = 0
KREE 141300Z 35010KT 03/01 A3002 RMK A01 T00300010  RH  087%=      5-min Rain = 0
KREE 141305Z 34012G17KT 03/01 A3003 RMK A01 T00300010  RH  088%=      5-min Rain = 0
KREE 141310Z 35012KT 03/01 A3003 RMK A01 T00310010  RH  087%=      5-min Rain = 0
KREE 141315Z 35012KT 03/01 A3003 RMK A01 T00300010  RH  087%=      5-min Rain = 0
KREE 141320Z 34011KT 03/01 A3003 RMK A01 T00300011  RH  088%=      5-min Rain = 0
KREE 141325Z 35014G19KT 03/01 A3003 RMK A01 T00300011  RH  089%=      5-min Rain = 0
KREE 141330Z 35014KT 03/01 A3004 RMK A01 T00290012  RH  090%=      5-min Rain = 0
KREE 141335Z 35013KT 03/01 A3004 RMK A01 T00280013  RH  091%=      5-min Rain = 0
KREE 141340Z 35014G19KT 03/01 A3004 RMK A01 T00270013  RH  092%=      5-min Rain = 0
KREE 141345Z 35015KT 03/01 A3004 RMK A01 T00270013  RH  092%=      5-min Rain = 0
KREE 141350Z 36014KT 03/01 A3005 RMK A01 T00260013  RH  092%=      5-min Rain = 0
KREE 141355Z 36015G20KT 03/01 A3005 RMK A01 T00250012  RH  093%=      5-min Rain = 0
KREE 141400Z 00015KT 02/01 A3005 RMK A01 T00230010  RH  093%=      5-min Rain = 0
KREE 141405Z 02012KT 02/01 A3005 RMK A01 T00210010  RH  094%=      5-min Rain = 0
KREE 141410Z 01011KT 02/01 A3005 RMK A01 T00220012  RH  094%=      5-min Rain = 0
KREE 141415Z 00011KT 02/01 A3006 RMK A01 T00230013  RH  094%=      5-min Rain = 0
KREE 141420Z 00012KT 02/01 A3006 RMK A01 T00220013  RH  095%=      5-min Rain = 0
KREE 141425Z 36011KT 02/01 A3006 RMK A01 T00210013  RH  096%=      5-min Rain = 0
KREE 141430Z 36011KT 02/01 A3007 RMK A01 T00200013  RH  096%=      5-min Rain = 0
KREE 141435Z 35010KT 02/01 A3007 RMK A01 T00210014  RH  097%=      5-min Rain = 0
KREE 141440Z 34013G18KT 02/02 A3007 RMK A01 T00210015  RH  097%=      5-min Rain = 0
KREE 141445Z 35013KT 02/01 A3007 RMK A01 T00200013  RH  097%=      5-min Rain = 0
KREE 141450Z 34012KT 02/02 A3007 RMK A01 T00210015  RH  097%=      5-min Rain = 0
KREE 141455Z 34012KT 02/02 A3007 RMK A01 T00210015  RH  097%=      5-min Rain = 0
KREE 141500Z 33011KT 02/02 A3008 RMK A01 T00220016  RH  097%=      5-min Rain = 0
KREE 141505Z 33012KT 02/02 A3008 RMK A01 T00220016  RH  097%=      5-min Rain = 0
KREE 141510Z 34014KT 02/02 A3008 RMK A01 T00220015  RH  096%=      5-min Rain = 0
KREE 141515Z 34014KT 02/01 A3008 RMK A01 T00210014  RH  096%=      5-min Rain = 0
KREE 141520Z 34015KT 02/02 A3008 RMK A01 T00220015  RH  096%=      5-min Rain = 0
KREE 141525Z 34014KT 02/02 A3009 RMK A01 T00230016  RH  096%=      5-min Rain = 0
KREE 141530Z 34016KT 02/02 A3009 RMK A01 T00220015  RH  096%=      5-min Rain = 0
KREE 141535Z 33016G21KT 02/01 A3008 RMK A01 T00210014  RH  096%=      5-min Rain = 0
KREE 141540Z 34015KT 02/01 A3008 RMK A01 T00210014  RH  096%=      5-min Rain = 0
KREE 141545Z 34016G21KT 02/01 A3008 RMK A01 T00210014  RH  096%=      5-min Rain = 0
KREE 141550Z 34016G21KT 02/01 A3008 RMK A01 T00190012  RH  096%=      5-min Rain = 0
KREE 141555Z 34016KT 02/01 A3008 RMK A01 T00190013  RH  097%=      5-min Rain = 0
KREE 141600Z 34016KT 02/01 A3008 RMK A01 T00190013  RH  097%=      5-min Rain = 0
KREE 141605Z 34017KT 02/01 A3008 RMK A01 T00190013  RH  097%=      5-min Rain = 0
KREE 141610Z 34016KT 02/02 A3008 RMK A01 T00220016  RH  097%=      5-min Rain = 0
KREE 141615Z 34017G22KT 02/02 A3008 RMK A01 T00230017  RH  097%=      5-min Rain = 0
KREE 141620Z 35018G23KT 03/02 A3008 RMK A01 T00250017  RH  096%=      5-min Rain = 0
KREE 141625Z 35019KT 03/02 A3008 RMK A01 T00260017  RH  095%=      5-min Rain = 0
KREE 141630Z 35019G24KT 03/02 A3008 RMK A01 T00260017  RH  095%=      5-min Rain = 0
KREE 141635Z 35017G25KT 03/02 A3008 RMK A01 T00270017  RH  095%=      5-min Rain = 0
KREE 141640Z 35019G24KT 03/02 A3009 RMK A01 T00260015  RH  094%=      5-min Rain = 0
KREE 141645Z 35020G25KT 03/02 A3009 RMK A01 T00250016  RH  095%=      5-min Rain = 0.01
KREE 141650Z 36019G26KT 02/02 A3009 RMK A01 T00240015  RH  095%=      5-min Rain = 0
KREE 141655Z 36020G26KT 03/02 A3009 RMK A01 T00260017  RH  095%=      5-min Rain = 0
KREE 141700Z 00022G30KT 03/02 A3009 RMK A01 T00270017  RH  094%=      5-min Rain = 0
KREE 141705Z 36022G27KT 03/02 A3009 RMK A01 T00280017  RH  094%=      5-min Rain = 0
KREE 141710Z 00020G25KT 03/02 A3009 RMK A01 T00290019  RH  095%=      5-min Rain = 0
KREE 141715Z 00021KT 03/02 A3009 RMK A01 T00300020  RH  094%=      5-min Rain = 0.01
KREE 141720Z 01022G27KT 03/02 A301 RMK A01 T00290018  RH  094%=      5-min Rain = 0
KREE 141725Z 00020G26KT 03/02 A301 RMK A01 T00290019  RH  094%=      5-min Rain = 0
KREE 141730Z 00022G29KT 03/02 A301 RMK A01 T00280017  RH  094%=      5-min Rain = 0
KREE 141735Z 36023G28KT 03/02 A301 RMK A01 T00270016  RH  094%=      5-min Rain = 0
KREE 141740Z 00025G31KT 03/02 A301 RMK A01 T00270016  RH  094%=      5-min Rain = 0
KREE 141745Z 00024G30KT 03/02 A301 RMK A01 T00270016  RH  093%=      5-min Rain = 0
KREE 141750Z 00025G34KT 03/02 A301 RMK A01 T00270015  RH  093%=      5-min Rain = 0
KREE 141755Z 00025G32KT 03/01 A301 RMK A01 T00260013  RH  092%=      5-min Rain = 0
KREE 141800Z 01025G34KT 03/01 A301 RMK A01 T00260012  RH  092%=      5-min Rain = 0
KREE 141805Z 00025G31KT 03/01 A301 RMK A01 T00270010  RH  090%=      5-min Rain = 0
KREE 141810Z 01026G34KT 03/01 A301 RMK A01 T00280010  RH  089%=      5-min Rain = 0
KREE 141815Z 01026G32KT 03/01 A301 RMK A01 T00280010  RH  089%=      5-min Rain = 0
KREE 141820Z 01026G33KT 03/01 A301 RMK A01 T00290009  RH  088%=      5-min Rain = 0
KREE 141825Z 01025G31KT 03/01 A301 RMK A01 T00280008  RH  088%=      5-min Rain = 0
KREE 141830Z 01025G31KT 03/01 A301 RMK A01 T00290010  RH  088%=      5-min Rain = 0
KREE 141835Z 00026G35KT 03/01 A301 RMK A01 T00280005  RH  086%=      5-min Rain = 0
KREE 141840Z 01027G34KT 03/00 A3011 RMK A01 T00280004  RH  085%=      5-min Rain = 0
KREE 141845Z 01024G30KT 03/01 A3011 RMK A01 T00270006  RH  087%=      5-min Rain = 0
KREE 141850Z 01022G29KT 03/01 A3011 RMK A01 T00270007  RH  088%=      5-min Rain = 0
KREE 141855Z 00021G29KT 03/01 A3011 RMK A01 T00280007  RH  087%=      5-min Rain = 0
KREE 141900Z 00023G30KT 03/01 A3011 RMK A01 T00290005  RH  085%=      5-min Rain = 0
KREE 141905Z 01024G32KT 03/00 A3011 RMK A01 T00290003  RH  083%=      5-min Rain = 0
KREE 141910Z 01022G29KT 03/00 A3011 RMK A01 T00290002  RH  084%=      5-min Rain = 0
KREE 141915Z 01023G28KT 03/00 A3011 RMK A01 T00280002  RH  084%=      5-min Rain = 0
KREE 141920Z 01021G29KT 03/00 A3011 RMK A01 T00290003  RH  084%=      5-min Rain = 0
KREE 141925Z 01021G26KT 03/00 A3011 RMK A01 T00280002  RH  084%=      5-min Rain = 0
KREE 141930Z 01023G30KT 03/00 A3011 RMK A01 T00280001  RH  084%=      5-min Rain = 0
KREE 141935Z 00022G27KT 03/00 A3011 RMK A01 T00280002  RH  084%=      5-min Rain = 0
KREE 141940Z 36021G27KT 03/00 A3011 RMK A01 T00270003  RH  085%=      5-min Rain = 0
KREE 141945Z 36020G27KT 03/00 A3011 RMK A01 T00290003  RH  084%=      5-min Rain = 0
KREE 141950Z 00021G28KT 03/00 A3011 RMK A01 T00310001  RH  082%=      5-min Rain = 0
KREE 141955Z 01023G29KT 03/M00 A3011 RMK A01 T00301004  RH  080%=      5-min Rain = 0
KREE 142000Z 36021G28KT 03/M00 A3011 RMK A01 T00271003  RH  082%=      5-min Rain = 0
KREE 142005Z 36020G26KT 03/M00 A3011 RMK A01 T00261004  RH  082%=      5-min Rain = 0
KREE 142010Z 36021G27KT 03/M00 A3011 RMK A01 T00261003  RH  082%=      5-min Rain = 0
KREE 142015Z 35020KT 03/M00 A3011 RMK A01 T00261004  RH  082%=      5-min Rain = 0
KREE 142020Z 35021G26KT 03/M01 A301 RMK A01 T00261005  RH  081%=      5-min Rain = 0
KREE 142025Z 36021G26KT 03/M01 A301 RMK A01 T00281005  RH  080%=      5-min Rain = 0
KREE 142030Z 36021KT 03/M00 A301 RMK A01 T00291004  RH  080%=      5-min Rain = 0
KREE 142035Z 00022G29KT 03/M01 A301 RMK A01 T00301005  RH  079%=      5-min Rain = 0
KREE 142040Z 36021G28KT 03/M01 A301 RMK A01 T00301005  RH  079%=      5-min Rain = 0
KREE 142045Z 36023G30KT 03/M01 A301 RMK A01 T00301007  RH  078%=      5-min Rain = 0
KREE 142050Z 36021KT 03/M01 A301 RMK A01 T00291006  RH  078%=      5-min Rain = 0
KREE 142055Z 36021KT 03/M00 A301 RMK A01 T00301004  RH  079%=      5-min Rain = 0
KREE 142100Z 00021G26KT 03/M01 A3011 RMK A01 T00291006  RH  078%=      5-min Rain = 0
KREE 142105Z 36022G28KT 03/M01 A3011 RMK A01 T00291006  RH  078%=      5-min Rain = 0
KREE 142110Z 00021G26KT 03/M01 A3011 RMK A01 T00291007  RH  078%=      5-min Rain = 0
KREE 142115Z 00023G30KT 03/M01 A3011 RMK A01 T00291009  RH  077%=      5-min Rain = 0
KREE 142120Z 01022G28KT 03/M01 A3011 RMK A01 T00281009  RH  077%=      5-min Rain = 0
KREE 142125Z 00019G27KT 03/M01 A3011 RMK A01 T00291005  RH  079%=      5-min Rain = 0
KREE 142130Z 00023G29KT 03/M01 A3011 RMK A01 T00291007  RH  078%=      5-min Rain = 0
KREE 142135Z 01023G29KT 03/M01 A3011 RMK A01 T00291009  RH  077%=      5-min Rain = 0
KREE 142140Z 01022G29KT 03/M01 A3011 RMK A01 T00291010  RH  077%=      5-min Rain = 0
KREE 142145Z 01020G25KT 03/M01 A3011 RMK A01 T00301009  RH  077%=      5-min Rain = 0
KREE 142150Z 00019G25KT 03/M01 A3011 RMK A01 T00291009  RH  077%=      5-min Rain = 0
KREE 142155Z 01020G26KT 03/M01 A3011 RMK A01 T00281010  RH  077%=      5-min Rain = 0
KREE 142200Z 00022G27KT 03/M01 A3011 RMK A01 T00291010  RH  076%=      5-min Rain = 0
KREE 142205Z 36020KT 03/M01 A3011 RMK A01 T00291009  RH  077%=      5-min Rain = 0
KREE 142210Z 00020G25KT 03/M01 A3011 RMK A01 T00291008  RH  078%=      5-min Rain = 0
KREE 142215Z 00021G26KT 03/M01 A3012 RMK A01 T00281009  RH  077%=      5-min Rain = 0
KREE 142220Z 36018G24KT 03/M01 A3012 RMK A01 T00271007  RH  079%=      5-min Rain = 0
KREE 142225Z 35019KT 03/M01 A3012 RMK A01 T00251005  RH  081%=      5-min Rain = 0
KREE 142230Z 00018KT 02/M01 A3013 RMK A01 T00241005  RH  082%=      5-min Rain = 0
KREE 142235Z 36016G21KT 02/M00 A3013 RMK A01 T00231004  RH  083%=      5-min Rain = 0
KREE 142240Z 36017KT 02/M00 A3013 RMK A01 T00231004  RH  084%=      5-min Rain = 0
KREE 142245Z 36016G21KT 02/M00 A3013 RMK A01 T00231003  RH  084%=      5-min Rain = 0
KREE 142250Z 00017G23KT 02/M01 A3013 RMK A01 T00231005  RH  083%=      5-min Rain = 0
KREE 142255Z 00017G23KT 02/M01 A3014 RMK A01 T00231008  RH  081%=      5-min Rain = 0
KREE 142300Z 00017KT 02/M01 A3014 RMK A01 T00221008  RH  081%=      5-min Rain = 0
KREE 142305Z 01017KT 02/M01 A3014 RMK A01 T00221009  RH  081%=      5-min Rain = 0
KREE 142310Z 36015G20KT 02/M01 A3014 RMK A01 T00221008  RH  081%=      5-min Rain = 0
KREE 142315Z 36015KT 02/M01 A3014 RMK A01 T00221011  RH  080%=      5-min Rain = 0
KREE 142320Z 35014G19KT 02/M01 A3014 RMK A01 T00221009  RH  081%=      5-min Rain = 0
KREE 142325Z 35014KT 02/M01 A3014 RMK A01 T00221009  RH  081%=      5-min Rain = 0
KREE 142330Z 35016KT 02/M01 A3014 RMK A01 T00211010  RH  081%=      5-min Rain = 0
KREE 142335Z 35013KT 02/M01 A3014 RMK A01 T00211009  RH  081%=      5-min Rain = 0
KREE 142340Z 35014KT 02/M01 A3014 RMK A01 T00221009  RH  081%=      5-min Rain = 0
KREE 142345Z 35014KT 02/M01 A3014 RMK A01 T00221009  RH  081%=      5-min Rain = 0
KREE 142350Z 35016KT 02/M01 A3015 RMK A01 T00231011  RH  079%=      5-min Rain = 0
KREE 142355Z 35013KT 02/M01 A3015 RMK A01 T00231010  RH  080%=      5-min Rain = 0
KREE 150000Z 34013KT 02/M01 A3015 RMK A01 T00231008  RH  081%=      5-min Rain = 0
KREE 150005Z 35014KT 02/M01 A3015 RMK A01 T00231010  RH  080%=      5-min Rain = 0
KREE 150010Z 35013KT 02/M01 A3015 RMK A01 T00231011  RH  080%=      5-min Rain = 0
KREE 150015Z 35012KT 02/M01 A3015 RMK A01 T00231009  RH  080%=      5-min Rain = 0
KREE 150020Z 35012KT 02/M01 A3015 RMK A01 T00231007  RH  082%=      5-min Rain = 0
KREE 150025Z 34011KT 02/M01 A3015 RMK A01 T00231005  RH  083%=      5-min Rain = 0
KREE 150030Z 34011KT 02/M01 A3015 RMK A01 T00231005  RH  082%=      5-min Rain = 0
KREE 150035Z 34010KT 02/M01 A3015 RMK A01 T00241005  RH  082%=      5-min Rain = 0
KREE 150040Z 34010KT 02/M00 A3015 RMK A01 T00241004  RH  083%=      5-min Rain = 0
KREE 150045Z 34010KT 03/M00 A3015 RMK A01 T00251003  RH  083%=      5-min Rain = 0
KREE 150050Z 34011KT 03/M00 A3015 RMK A01 T00251003  RH  083%=      5-min Rain = 0
KREE 150055Z 34012KT 03/M00 A3015 RMK A01 T00261004  RH  082%=      5-min Rain = 0
KREE 150100Z 34012KT 03/M01 A3015 RMK A01 T00261006  RH  080%=      5-min Rain = 0
KREE 150105Z 34011KT 03/M01 A3016 RMK A01 T00261007  RH  080%=      5-min Rain = 0
KREE 150110Z 34010KT 03/M01 A3016 RMK A01 T00261005  RH  081%=      5-min Rain = 0
KREE 150115Z 34009KT 03/M00 A3016 RMK A01 T00261004  RH  082%=      5-min Rain = 0
KREE 150120Z 33008KT 03/M00 A3016 RMK A01 T00261003  RH  082%=      5-min Rain = 0
KREE 150125Z 34008KT 03/M00 A3016 RMK A01 T00261003  RH  082%=      5-min Rain = 0
KREE 150130Z 33008KT 03/M00 A3016 RMK A01 T00261003  RH  082%=      5-min Rain = 0
KREE 150135Z 33010KT 03/M00 A3016 RMK A01 T00271004  RH  081%=      5-min Rain = 0
KREE 150140Z 34010KT 03/M01 A3017 RMK A01 T00291006  RH  078%=      5-min Rain = 0
KREE 150145Z 34009KT 03/M01 A3017 RMK A01 T00301006  RH  079%=      5-min Rain = 0
KREE 150150Z 34009KT 03/M01 A3017 RMK A01 T00291005  RH  079%=      5-min Rain = 0
KREE 150155Z 34009KT 03/M01 A3017 RMK A01 T00291005  RH  079%=      5-min Rain = 0
KREE 150200Z 34009KT 03/M00 A3017 RMK A01 T00301004  RH  079%=      5-min Rain = 0
KREE 150205Z 33009KT 03/M00 A3017 RMK A01 T00301004  RH  080%=      5-min Rain = 0
KREE 150210Z 33008KT 03/M00 A3018 RMK A01 T00291003  RH  080%=      5-min Rain = 0
KREE 150215Z 32008KT 03/M00 A3018 RMK A01 T00291002  RH  081%=      5-min Rain = 0
KREE 150220Z 32008KT 03/M00 A3018 RMK A01 T00291002  RH  081%=      5-min Rain = 0
KREE 150225Z 32008KT 03/M00 A3018 RMK A01 T00281002  RH  081%=      5-min Rain = 0
KREE 150230Z 32008KT 03/M00 A3018 RMK A01 T00281002  RH  081%=      5-min Rain = 0
KREE 150235Z 32008KT 03/M00 A3018 RMK A01 T00291003  RH  081%=      5-min Rain = 0
KREE 150240Z 32007KT 03/M00 A3019 RMK A01 T00291003  RH  081%=      5-min Rain = 0
KREE 150245Z 31007KT 03/M00 A3019 RMK A01 T00291002  RH  081%=      5-min Rain = 0
KREE 150250Z 31007KT 03/M00 A3019 RMK A01 T00281002  RH  081%=      5-min Rain = 0
KREE 150255Z 31008KT 03/M00 A3019 RMK A01 T00291002  RH  081%=      5-min Rain = 0
KREE 150300Z 31008KT 03/M00 A3019 RMK A01 T00291003  RH  080%=      5-min Rain = 0
KREE 150305Z 32008KT 03/M00 A3019 RMK A01 T00291003  RH  080%=      5-min Rain = 0
KREE 150310Z 31008KT 03/M00 A3019 RMK A01 T00291001  RH  081%=      5-min Rain = 0
KREE 150315Z 31008KT 03/M00 A3019 RMK A01 T00291001  RH  082%=      5-min Rain = 0
KREE 150320Z 31008KT 03/M00 A3019 RMK A01 T00291001  RH  082%=      5-min Rain = 0
KREE 150325Z 31007KT 03/M00 A3019 RMK A01 T00291001  RH  082%=      5-min Rain = 0
KREE 150330Z 31008KT 03/00 A3019 RMK A01 T00280000  RH  083%=      5-min Rain = 0
KREE 150335Z 31008KT 03/00 A3019 RMK A01 T00280001  RH  083%=      5-min Rain = 0
KREE 150340Z 31008KT 03/00 A3019 RMK A01 T00280000  RH  083%=      5-min Rain = 0
KREE 150345Z 31008KT 03/00 A3019 RMK A01 T00280000  RH  083%=      5-min Rain = 0
KREE 150350Z 31007KT 03/00 A3019 RMK A01 T002800-0  RH  083%=      5-min Rain = 0
KREE 150355Z 31007KT 03/M00 A3019 RMK A01 T00271002  RH  082%=      5-min Rain = 0
KREE 150400Z 31008KT 03/M00 A3019 RMK A01 T00261003  RH  082%=      5-min Rain = 0
KREE 150405Z 31008KT 02/M00 A3019 RMK A01 T00241004  RH  083%=      5-min Rain = 0
KREE 150410Z 31008KT 02/M01 A3019 RMK A01 T00221005  RH  083%=      5-min Rain = 0
KREE 150415Z 31009KT 02/M00 A3019 RMK A01 T00201004  RH  085%=      5-min Rain = 0
KREE 150420Z 31008KT 02/M00 A3019 RMK A01 T00181004  RH  087%=      5-min Rain = 0
KREE 150425Z 31009KT 02/M00 A3019 RMK A01 T00171004  RH  087%=      5-min Rain = 0
KREE 150430Z 31010KT 02/M00 A3019 RMK A01 T00171004  RH  087%=      5-min Rain = 0
KREE 150435Z 31010KT 02/M01 A3019 RMK A01 T00151005  RH  087%=      5-min Rain = 0
KREE 150440Z 31011KT 02/M01 A3019 RMK A01 T00151006  RH  087%=      5-min Rain = 0
KREE 150445Z 30011KT 01/M01 A3019 RMK A01 T00141007  RH  087%=      5-min Rain = 0
KREE 150450Z 30010KT 01/M01 A3019 RMK A01 T00131008  RH  087%=      5-min Rain = 0
KREE 150455Z 30010KT 01/M01 A3019 RMK A01 T00121009  RH  087%=      5-min Rain = 0
KREE 150500Z 30010KT 01/M01 A3019 RMK A01 T00101009  RH  088%=      5-min Rain = 0
KREE 150505Z 30010KT 01/M01 A3019 RMK A01 T00091009  RH  089%=      5-min Rain = 0
KREE 150510Z 30010KT 01/M01 A3019 RMK A01 T00081010  RH  089%=      5-min Rain = 0
KREE 150515Z 30010KT 01/M01 A3019 RMK A01 T00061010  RH  090%=      5-min Rain = 0
KREE 150520Z 29009KT 01/M01 A3018 RMK A01 T00051011  RH  090%=      5-min Rain = 0
KREE 150525Z 30009KT 00/M01 A3018 RMK A01 T00031012  RH  091%=      5-min Rain = 0
KREE 150530Z 30009KT 00/M01 A3018 RMK A01 T00031012  RH  091%=      5-min Rain = 0
KREE 150535Z 30010KT 00/M01 A3018 RMK A01 T00031013  RH  090%=      5-min Rain = 0
KREE 150540Z 30010KT 00/M01 A3018 RMK A01 T00041014  RH  089%=      5-min Rain = 0
KREE 150545Z 30010KT 01/M01 A3019 RMK A01 T00051014  RH  088%=      5-min Rain = 0
KREE 150550Z 30011KT 01/M02 A3019 RMK A01 T00051015  RH  087%=      5-min Rain = 0
KREE 150555Z 30011KT 01/M02 A3019 RMK A01 T00051016  RH  087%=      5-min Rain = 0

Page generated in 0.0095 seconds.